sensor_id;sensor_type;location;lat;lon;timestamp;P1;durP1;ratioP1;P2;durP2;ratioP2
39524;SDS011;25203;50.754;6.978;2023-04-24T00:00:56;1.08;;;0.90;;
39524;SDS011;25203;50.754;6.978;2023-04-24T00:02:58;2.05;;;0.70;;
39524;SDS011;25203;50.754;6.978;2023-04-24T00:04:59;1.13;;;0.73;;
39524;SDS011;25203;50.754;6.978;2023-04-24T00:07:02;3.20;;;0.90;;
39524;SDS011;25203;50.754;6.978;2023-04-24T00:09:03;0.80;;;0.80;;
39524;SDS011;25203;50.754;6.978;2023-04-24T00:11:03;0.80;;;0.80;;
39524;SDS011;25203;50.754;6.978;2023-04-24T00:13:04;0.90;;;0.82;;
39524;SDS011;25203;50.754;6.978;2023-04-24T00:15:05;0.80;;;0.80;;
39524;SDS011;25203;50.754;6.978;2023-04-24T00:17:06;1.13;;;0.82;;
39524;SDS011;25203;50.754;6.978;2023-04-24T00:19:07;1.20;;;0.88;;
39524;SDS011;25203;50.754;6.978;2023-04-24T00:21:07;1.60;;;0.80;;
39524;SDS011;25203;50.754;6.978;2023-04-24T00:23:08;0.70;;;0.70;;
39524;SDS011;25203;50.754;6.978;2023-04-24T00:25:08;0.75;;;0.70;;
39524;SDS011;25203;50.754;6.978;2023-04-24T00:27:09;2.03;;;1.10;;
39524;SDS011;25203;50.754;6.978;2023-04-24T00:29:09;0.73;;;0.73;;
39524;SDS011;25203;50.754;6.978;2023-04-24T00:31:10;0.80;;;0.80;;
39524;SDS011;25203;50.754;6.978;2023-04-24T00:33:11;1.20;;;0.77;;
39524;SDS011;25203;50.754;6.978;2023-04-24T00:35:11;1.38;;;0.80;;
39524;SDS011;25203;50.754;6.978;2023-04-24T00:37:12;0.68;;;0.68;;
39524;SDS011;25203;50.754;6.978;2023-04-24T00:39:13;2.28;;;0.80;;
39524;SDS011;25203;50.754;6.978;2023-04-24T00:41:13;0.82;;;0.82;;
39524;SDS011;25203;50.754;6.978;2023-04-24T00:43:14;1.83;;;0.95;;
39524;SDS011;25203;50.754;6.978;2023-04-24T00:45:15;0.75;;;0.70;;
39524;SDS011;25203;50.754;6.978;2023-04-24T00:47:16;1.05;;;0.75;;
39524;SDS011;25203;50.754;6.978;2023-04-24T00:49:16;1.23;;;0.80;;
39524;SDS011;25203;50.754;6.978;2023-04-24T00:51:18;1.63;;;0.75;;
39524;SDS011;25203;50.754;6.978;2023-04-24T00:53:19;0.82;;;0.70;;
39524;SDS011;25203;50.754;6.978;2023-04-24T00:55:20;0.70;;;0.70;;
39524;SDS011;25203;50.754;6.978;2023-04-24T00:57:21;1.60;;;0.77;;
39524;SDS011;25203;50.754;6.978;2023-04-24T00:59:23;0.63;;;0.63;;
39524;SDS011;25203;50.754;6.978;2023-04-24T01:01:24;1.38;;;0.90;;
39524;SDS011;25203;50.754;6.978;2023-04-24T01:03:26;2.13;;;0.70;;
39524;SDS011;25203;50.754;6.978;2023-04-24T01:05:29;1.20;;;0.98;;
39524;SDS011;25203;50.754;6.978;2023-04-24T01:07:29;1.58;;;0.80;;
39524;SDS011;25203;50.754;6.978;2023-04-24T01:09:30;0.77;;;0.63;;
39524;SDS011;25203;50.754;6.978;2023-04-24T01:11:31;2.15;;;0.75;;
39524;SDS011;25203;50.754;6.978;2023-04-24T01:13:32;0.90;;;0.90;;
39524;SDS011;25203;50.754;6.978;2023-04-24T01:15:34;1.58;;;1.10;;
39524;SDS011;25203;50.754;6.978;2023-04-24T01:17:35;1.67;;;0.95;;
39524;SDS011;25203;50.754;6.978;2023-04-24T01:19:35;3.53;;;1.67;;
39524;SDS011;25203;50.754;6.978;2023-04-24T01:21:37;2.65;;;1.40;;
39524;SDS011;25203;50.754;6.978;2023-04-24T01:23:38;4.32;;;1.60;;
39524;SDS011;25203;50.754;6.978;2023-04-24T01:25:40;6.70;;;1.70;;
39524;SDS011;25203;50.754;6.978;2023-04-24T01:27:40;3.25;;;1.95;;
39524;SDS011;25203;50.754;6.978;2023-04-24T01:29:41;1.85;;;1.70;;
39524;SDS011;25203;50.754;6.978;2023-04-24T01:31:41;2.03;;;1.80;;
39524;SDS011;25203;50.754;6.978;2023-04-24T01:33:43;4.90;;;2.40;;
39524;SDS011;25203;50.754;6.978;2023-04-24T01:35:43;3.83;;;2.30;;
39524;SDS011;25203;50.754;6.978;2023-04-24T01:37:44;3.55;;;2.03;;
39524;SDS011;25203;50.754;6.978;2023-04-24T01:39:45;2.60;;;2.17;;
39524;SDS011;25203;50.754;6.978;2023-04-24T01:41:46;2.40;;;1.90;;
39524;SDS011;25203;50.754;6.978;2023-04-24T01:43:46;4.82;;;2.50;;
39524;SDS011;25203;50.754;6.978;2023-04-24T01:45:48;2.55;;;1.90;;
39524;SDS011;25203;50.754;6.978;2023-04-24T01:47:49;4.05;;;2.22;;
39524;SDS011;25203;50.754;6.978;2023-04-24T01:49:50;2.00;;;1.80;;
39524;SDS011;25203;50.754;6.978;2023-04-24T01:51:51;2.13;;;1.83;;
39524;SDS011;25203;50.754;6.978;2023-04-24T01:53:52;4.20;;;2.17;;
39524;SDS011;25203;50.754;6.978;2023-04-24T01:55:53;2.60;;;1.77;;
39524;SDS011;25203;50.754;6.978;2023-04-24T01:57:54;2.95;;;1.92;;
39524;SDS011;25203;50.754;6.978;2023-04-24T01:59:56;3.78;;;2.10;;
39524;SDS011;25203;50.754;6.978;2023-04-24T02:01:56;4.20;;;1.83;;
39524;SDS011;25203;50.754;6.978;2023-04-24T02:03:57;2.00;;;1.80;;
39524;SDS011;25203;50.754;6.978;2023-04-24T02:05:57;2.00;;;1.77;;
39524;SDS011;25203;50.754;6.978;2023-04-24T02:07:58;3.20;;;2.15;;
39524;SDS011;25203;50.754;6.978;2023-04-24T02:09:59;5.38;;;2.20;;
39524;SDS011;25203;50.754;6.978;2023-04-24T02:11:59;4.00;;;1.85;;
39524;SDS011;25203;50.754;6.978;2023-04-24T02:14:00;4.25;;;2.67;;
39524;SDS011;25203;50.754;6.978;2023-04-24T02:16:01;3.92;;;3.53;;
39524;SDS011;25203;50.754;6.978;2023-04-24T02:18:01;6.32;;;4.55;;
39524;SDS011;25203;50.754;6.978;2023-04-24T02:20:02;6.82;;;5.47;;
39524;SDS011;25203;50.754;6.978;2023-04-24T02:22:03;8.15;;;5.50;;
39524;SDS011;25203;50.754;6.978;2023-04-24T02:24:04;6.35;;;5.05;;
39524;SDS011;25203;50.754;6.978;2023-04-24T02:26:05;9.30;;;4.97;;
39524;SDS011;25203;50.754;6.978;2023-04-24T02:28:05;6.07;;;5.47;;
39524;SDS011;25203;50.754;6.978;2023-04-24T02:30:06;8.30;;;5.20;;
39524;SDS011;25203;50.754;6.978;2023-04-24T02:32:08;7.05;;;5.20;;
39524;SDS011;25203;50.754;6.978;2023-04-24T02:34:11;6.00;;;5.30;;
39524;SDS011;25203;50.754;6.978;2023-04-24T02:36:12;6.63;;;5.35;;
39524;SDS011;25203;50.754;6.978;2023-04-24T02:38:13;5.63;;;4.95;;
39524;SDS011;25203;50.754;6.978;2023-04-24T02:40:13;6.43;;;5.28;;
39524;SDS011;25203;50.754;6.978;2023-04-24T02:42:14;8.23;;;5.75;;
39524;SDS011;25203;50.754;6.978;2023-04-24T02:44:15;8.15;;;5.53;;
39524;SDS011;25203;50.754;6.978;2023-04-24T02:46:17;8.73;;;5.72;;
39524;SDS011;25203;50.754;6.978;2023-04-24T02:48:17;6.60;;;5.35;;
39524;SDS011;25203;50.754;6.978;2023-04-24T02:50:18;10.02;;;5.05;;
39524;SDS011;25203;50.754;6.978;2023-04-24T02:52:19;7.63;;;5.82;;
39524;SDS011;25203;50.754;6.978;2023-04-24T02:54:19;5.95;;;5.13;;
39524;SDS011;25203;50.754;6.978;2023-04-24T02:56:20;7.00;;;5.60;;
39524;SDS011;25203;50.754;6.978;2023-04-24T02:58:20;9.27;;;6.03;;
39524;SDS011;25203;50.754;6.978;2023-04-24T03:00:21;8.45;;;5.68;;
39524;SDS011;25203;50.754;6.978;2023-04-24T03:02:22;6.97;;;5.72;;
39524;SDS011;25203;50.754;6.978;2023-04-24T03:04:22;9.05;;;6.20;;
39524;SDS011;25203;50.754;6.978;2023-04-24T03:06:23;7.72;;;6.32;;
39524;SDS011;25203;50.754;6.978;2023-04-24T03:08:23;8.70;;;5.80;;
39524;SDS011;25203;50.754;6.978;2023-04-24T03:10:24;7.28;;;5.65;;
39524;SDS011;25203;50.754;6.978;2023-04-24T03:12:25;6.13;;;4.85;;
39524;SDS011;25203;50.754;6.978;2023-04-24T03:14:25;8.57;;;5.50;;
39524;SDS011;25203;50.754;6.978;2023-04-24T03:16:26;7.63;;;6.30;;
39524;SDS011;25203;50.754;6.978;2023-04-24T03:18:26;8.15;;;5.65;;
39524;SDS011;25203;50.754;6.978;2023-04-24T03:20:27;8.55;;;5.53;;
39524;SDS011;25203;50.754;6.978;2023-04-24T03:22:28;11.07;;;6.07;;
39524;SDS011;25203;50.754;6.978;2023-04-24T03:24:28;8.57;;;6.20;;
39524;SDS011;25203;50.754;6.978;2023-04-24T03:26:29;8.15;;;5.78;;
39524;SDS011;25203;50.754;6.978;2023-04-24T03:28:29;8.77;;;5.45;;
39524;SDS011;25203;50.754;6.978;2023-04-24T03:30:30;7.88;;;5.80;;
39524;SDS011;25203;50.754;6.978;2023-04-24T03:32:30;6.70;;;5.82;;
39524;SDS011;25203;50.754;6.978;2023-04-24T03:34:32;8.35;;;6.28;;
39524;SDS011;25203;50.754;6.978;2023-04-24T03:36:32;8.50;;;5.93;;
39524;SDS011;25203;50.754;6.978;2023-04-24T03:38:33;7.28;;;5.82;;
39524;SDS011;25203;50.754;6.978;2023-04-24T03:40:33;8.82;;;6.10;;
39524;SDS011;25203;50.754;6.978;2023-04-24T03:42:34;9.55;;;5.97;;
39524;SDS011;25203;50.754;6.978;2023-04-24T03:44:35;10.48;;;6.25;;
39524;SDS011;25203;50.754;6.978;2023-04-24T03:46:36;7.68;;;6.03;;
39524;SDS011;25203;50.754;6.978;2023-04-24T03:48:36;7.57;;;6.60;;
39524;SDS011;25203;50.754;6.978;2023-04-24T03:50:37;9.10;;;6.78;;
39524;SDS011;25203;50.754;6.978;2023-04-24T03:52:37;7.78;;;6.97;;
39524;SDS011;25203;50.754;6.978;2023-04-24T03:54:38;11.75;;;6.57;;
39524;SDS011;25203;50.754;6.978;2023-04-24T03:56:39;14.40;;;6.80;;
39524;SDS011;25203;50.754;6.978;2023-04-24T03:58:39;7.82;;;6.43;;
39524;SDS011;25203;50.754;6.978;2023-04-24T04:00:40;7.57;;;6.50;;
39524;SDS011;25203;50.754;6.978;2023-04-24T04:02:41;9.10;;;6.35;;
39524;SDS011;25203;50.754;6.978;2023-04-24T04:04:41;9.32;;;6.75;;
39524;SDS011;25203;50.754;6.978;2023-04-24T04:06:42;7.82;;;6.75;;
39524;SDS011;25203;50.754;6.978;2023-04-24T04:08:44;11.10;;;7.00;;
39524;SDS011;25203;50.754;6.978;2023-04-24T04:10:44;8.70;;;6.03;;
39524;SDS011;25203;50.754;6.978;2023-04-24T04:12:45;9.18;;;7.32;;
39524;SDS011;25203;50.754;6.978;2023-04-24T04:14:45;10.65;;;7.38;;
39524;SDS011;25203;50.754;6.978;2023-04-24T04:16:46;9.05;;;6.88;;
39524;SDS011;25203;50.754;6.978;2023-04-24T04:18:47;8.93;;;6.85;;
39524;SDS011;25203;50.754;6.978;2023-04-24T04:20:47;7.72;;;6.43;;
39524;SDS011;25203;50.754;6.978;2023-04-24T04:22:48;9.07;;;7.63;;
39524;SDS011;25203;50.754;6.978;2023-04-24T04:24:48;8.13;;;6.78;;
39524;SDS011;25203;50.754;6.978;2023-04-24T04:26:51;10.20;;;7.82;;
39524;SDS011;25203;50.754;6.978;2023-04-24T04:28:52;9.30;;;6.93;;
39524;SDS011;25203;50.754;6.978;2023-04-24T04:30:53;9.45;;;6.65;;
39524;SDS011;25203;50.754;6.978;2023-04-24T04:32:54;8.43;;;7.35;;
39524;SDS011;25203;50.754;6.978;2023-04-24T04:34:55;9.55;;;6.95;;
39524;SDS011;25203;50.754;6.978;2023-04-24T04:36:56;7.20;;;6.50;;
39524;SDS011;25203;50.754;6.978;2023-04-24T04:38:59;8.43;;;6.68;;
39524;SDS011;25203;50.754;6.978;2023-04-24T04:41:00;8.73;;;6.80;;
39524;SDS011;25203;50.754;6.978;2023-04-24T04:43:00;7.72;;;6.72;;
39524;SDS011;25203;50.754;6.978;2023-04-24T04:45:01;7.53;;;6.25;;
39524;SDS011;25203;50.754;6.978;2023-04-24T04:47:02;9.07;;;6.97;;
39524;SDS011;25203;50.754;6.978;2023-04-24T04:49:05;10.73;;;6.50;;
39524;SDS011;25203;50.754;6.978;2023-04-24T04:51:06;7.90;;;6.53;;
39524;SDS011;25203;50.754;6.978;2023-04-24T04:53:06;10.48;;;6.85;;
39524;SDS011;25203;50.754;6.978;2023-04-24T04:55:07;12.02;;;6.85;;
39524;SDS011;25203;50.754;6.978;2023-04-24T04:57:08;9.93;;;7.90;;
39524;SDS011;25203;50.754;6.978;2023-04-24T04:59:09;9.85;;;7.43;;
39524;SDS011;25203;50.754;6.978;2023-04-24T05:01:09;9.77;;;6.95;;
39524;SDS011;25203;50.754;6.978;2023-04-24T05:03:10;9.95;;;6.93;;
39524;SDS011;25203;50.754;6.978;2023-04-24T05:05:10;8.32;;;7.50;;
39524;SDS011;25203;50.754;6.978;2023-04-24T05:07:11;7.95;;;6.60;;
39524;SDS011;25203;50.754;6.978;2023-04-24T05:09:11;11.88;;;7.85;;
39524;SDS011;25203;50.754;6.978;2023-04-24T05:11:12;11.07;;;7.60;;
39524;SDS011;25203;50.754;6.978;2023-04-24T05:13:13;8.18;;;7.10;;
39524;SDS011;25203;50.754;6.978;2023-04-24T05:15:13;10.02;;;7.43;;
39524;SDS011;25203;50.754;6.978;2023-04-24T05:17:14;8.38;;;7.20;;
39524;SDS011;25203;50.754;6.978;2023-04-24T05:19:15;9.73;;;6.50;;
39524;SDS011;25203;50.754;6.978;2023-04-24T05:21:15;11.02;;;7.53;;
39524;SDS011;25203;50.754;6.978;2023-04-24T05:23:16;8.43;;;7.47;;
39524;SDS011;25203;50.754;6.978;2023-04-24T05:25:16;8.00;;;6.90;;
39524;SDS011;25203;50.754;6.978;2023-04-24T05:27:17;8.07;;;7.28;;
39524;SDS011;25203;50.754;6.978;2023-04-24T05:29:18;11.18;;;7.13;;
39524;SDS011;25203;50.754;6.978;2023-04-24T05:31:19;7.40;;;6.60;;
39524;SDS011;25203;50.754;6.978;2023-04-24T05:33:19;8.45;;;7.07;;
39524;SDS011;25203;50.754;6.978;2023-04-24T05:35:20;10.35;;;6.90;;
39524;SDS011;25203;50.754;6.978;2023-04-24T05:37:20;10.55;;;7.15;;
39524;SDS011;25203;50.754;6.978;2023-04-24T05:39:21;10.65;;;6.95;;
39524;SDS011;25203;50.754;6.978;2023-04-24T05:41:22;9.35;;;7.47;;
39524;SDS011;25203;50.754;6.978;2023-04-24T05:43:22;16.55;;;7.70;;
39524;SDS011;25203;50.754;6.978;2023-04-24T05:45:23;8.88;;;6.80;;
39524;SDS011;25203;50.754;6.978;2023-04-24T05:47:24;9.85;;;7.68;;
39524;SDS011;25203;50.754;6.978;2023-04-24T05:49:26;9.40;;;7.25;;
39524;SDS011;25203;50.754;6.978;2023-04-24T05:51:26;7.75;;;6.75;;
39524;SDS011;25203;50.754;6.978;2023-04-24T05:53:27;8.15;;;6.70;;
39524;SDS011;25203;50.754;6.978;2023-04-24T05:55:28;8.63;;;6.25;;
39524;SDS011;25203;50.754;6.978;2023-04-24T05:57:28;8.57;;;6.40;;
39524;SDS011;25203;50.754;6.978;2023-04-24T05:59:29;6.95;;;6.30;;
39524;SDS011;25203;50.754;6.978;2023-04-24T06:01:29;8.77;;;6.47;;
39524;SDS011;25203;50.754;6.978;2023-04-24T06:03:31;7.80;;;6.80;;
39524;SDS011;25203;50.754;6.978;2023-04-24T06:05:32;7.82;;;6.32;;
39524;SDS011;25203;50.754;6.978;2023-04-24T06:07:33;9.27;;;6.75;;
39524;SDS011;25203;50.754;6.978;2023-04-24T06:09:34;7.95;;;6.55;;
39524;SDS011;25203;50.754;6.978;2023-04-24T06:11:35;10.20;;;6.93;;
39524;SDS011;25203;50.754;6.978;2023-04-24T06:13:35;10.57;;;6.55;;
39524;SDS011;25203;50.754;6.978;2023-04-24T06:15:36;9.35;;;6.43;;
39524;SDS011;25203;50.754;6.978;2023-04-24T06:17:37;10.40;;;6.53;;
39524;SDS011;25203;50.754;6.978;2023-04-24T06:19:37;7.20;;;5.70;;
39524;SDS011;25203;50.754;6.978;2023-04-24T06:21:38;8.10;;;5.63;;
39524;SDS011;25203;50.754;6.978;2023-04-24T06:23:38;10.32;;;5.35;;
39524;SDS011;25203;50.754;6.978;2023-04-24T06:25:39;6.25;;;4.78;;
39524;SDS011;25203;50.754;6.978;2023-04-24T06:27:39;7.88;;;4.78;;
39524;SDS011;25203;50.754;6.978;2023-04-24T06:29:40;4.93;;;4.40;;
39524;SDS011;25203;50.754;6.978;2023-04-24T06:31:41;10.18;;;5.32;;
39524;SDS011;25203;50.754;6.978;2023-04-24T06:33:42;6.18;;;5.13;;
39524;SDS011;25203;50.754;6.978;2023-04-24T06:35:43;5.82;;;4.93;;
39524;SDS011;25203;50.754;6.978;2023-04-24T06:37:43;8.43;;;5.25;;
39524;SDS011;25203;50.754;6.978;2023-04-24T06:39:44;6.65;;;4.80;;
39524;SDS011;25203;50.754;6.978;2023-04-24T06:41:45;5.25;;;4.60;;
39524;SDS011;25203;50.754;6.978;2023-04-24T06:43:45;4.28;;;3.83;;
39524;SDS011;25203;50.754;6.978;2023-04-24T06:45:46;4.40;;;3.28;;
39524;SDS011;25203;50.754;6.978;2023-04-24T06:47:47;4.90;;;3.78;;
39524;SDS011;25203;50.754;6.978;2023-04-24T06:49:47;8.85;;;3.67;;
39524;SDS011;25203;50.754;6.978;2023-04-24T06:51:48;3.88;;;3.47;;
39524;SDS011;25203;50.754;6.978;2023-04-24T06:53:48;4.13;;;3.65;;
39524;SDS011;25203;50.754;6.978;2023-04-24T06:55:50;4.15;;;2.90;;
39524;SDS011;25203;50.754;6.978;2023-04-24T06:57:50;4.10;;;2.88;;
39524;SDS011;25203;50.754;6.978;2023-04-24T06:59:51;3.85;;;2.70;;
39524;SDS011;25203;50.754;6.978;2023-04-24T07:01:51;3.40;;;3.10;;
39524;SDS011;25203;50.754;6.978;2023-04-24T07:03:52;3.45;;;2.65;;
39524;SDS011;25203;50.754;6.978;2023-04-24T07:05:53;4.25;;;2.67;;
39524;SDS011;25203;50.754;6.978;2023-04-24T07:07:54;2.95;;;2.50;;
39524;SDS011;25203;50.754;6.978;2023-04-24T07:09:56;2.75;;;2.33;;
39524;SDS011;25203;50.754;6.978;2023-04-24T07:11:57;4.60;;;2.50;;
39524;SDS011;25203;50.754;6.978;2023-04-24T07:13:58;2.70;;;2.15;;
39524;SDS011;25203;50.754;6.978;2023-04-24T07:15:59;2.00;;;1.80;;
39524;SDS011;25203;50.754;6.978;2023-04-24T07:18:00;2.20;;;2.00;;
39524;SDS011;25203;50.754;6.978;2023-04-24T07:20:01;2.83;;;2.00;;
39524;SDS011;25203;50.754;6.978;2023-04-24T07:22:02;2.63;;;1.60;;
39524;SDS011;25203;50.754;6.978;2023-04-24T07:24:03;5.28;;;2.00;;
39524;SDS011;25203;50.754;6.978;2023-04-24T07:26:04;1.95;;;1.85;;
39524;SDS011;25203;50.754;6.978;2023-04-24T07:28:05;2.40;;;1.60;;
39524;SDS011;25203;50.754;6.978;2023-04-24T07:30:05;4.30;;;1.73;;
39524;SDS011;25203;50.754;6.978;2023-04-24T07:32:06;3.55;;;1.65;;
39524;SDS011;25203;50.754;6.978;2023-04-24T07:34:07;2.40;;;2.20;;
39524;SDS011;25203;50.754;6.978;2023-04-24T07:36:08;4.00;;;2.15;;
39524;SDS011;25203;50.754;6.978;2023-04-24T07:38:15;2.45;;;2.25;;
39524;SDS011;25203;50.754;6.978;2023-04-24T07:40:15;2.20;;;1.80;;
39524;SDS011;25203;50.754;6.978;2023-04-24T07:42:16;1.80;;;1.70;;
39524;SDS011;25203;50.754;6.978;2023-04-24T07:44:17;2.00;;;1.80;;
39524;SDS011;25203;50.754;6.978;2023-04-24T07:46:17;1.92;;;1.73;;
39524;SDS011;25203;50.754;6.978;2023-04-24T07:48:18;2.53;;;1.63;;
39524;SDS011;25203;50.754;6.978;2023-04-24T07:50:19;2.33;;;1.60;;
39524;SDS011;25203;50.754;6.978;2023-04-24T07:52:20;1.48;;;1.38;;
39524;SDS011;25203;50.754;6.978;2023-04-24T07:54:20;1.75;;;1.48;;
39524;SDS011;25203;50.754;6.978;2023-04-24T07:56:21;1.85;;;1.58;;
39524;SDS011;25203;50.754;6.978;2023-04-24T07:58:22;1.50;;;1.40;;
39524;SDS011;25203;50.754;6.978;2023-04-24T08:00:23;1.27;;;1.17;;
39524;SDS011;25203;50.754;6.978;2023-04-24T08:02:23;1.67;;;1.42;;
39524;SDS011;25203;50.754;6.978;2023-04-24T08:04:26;0.93;;;0.90;;
39524;SDS011;25203;50.754;6.978;2023-04-24T08:06:27;1.48;;;1.27;;
39524;SDS011;25203;50.754;6.978;2023-04-24T08:08:30;7.13;;;2.00;;
39524;SDS011;25203;50.754;6.978;2023-04-24T08:10:30;2.05;;;1.40;;
39524;SDS011;25203;50.754;6.978;2023-04-24T08:12:31;2.28;;;1.40;;
39524;SDS011;25203;50.754;6.978;2023-04-24T08:14:31;2.40;;;1.73;;
39524;SDS011;25203;50.754;6.978;2023-04-24T08:16:32;3.72;;;2.03;;
39524;SDS011;25203;50.754;6.978;2023-04-24T08:18:35;3.55;;;1.92;;
39524;SDS011;25203;50.754;6.978;2023-04-24T08:20:35;2.20;;;1.95;;
39524;SDS011;25203;50.754;6.978;2023-04-24T08:22:36;2.72;;;2.45;;
39524;SDS011;25203;50.754;6.978;2023-04-24T08:24:37;4.10;;;2.35;;
39524;SDS011;25203;50.754;6.978;2023-04-24T08:26:37;2.70;;;2.47;;
39524;SDS011;25203;50.754;6.978;2023-04-24T08:28:38;6.47;;;3.03;;
39524;SDS011;25203;50.754;6.978;2023-04-24T08:30:39;4.15;;;2.53;;
39524;SDS011;25203;50.754;6.978;2023-04-24T08:32:39;3.20;;;2.60;;
39524;SDS011;25203;50.754;6.978;2023-04-24T08:34:40;3.10;;;2.45;;
39524;SDS011;25203;50.754;6.978;2023-04-24T08:36:41;3.63;;;2.75;;
39524;SDS011;25203;50.754;6.978;2023-04-24T08:38:41;4.25;;;3.25;;
39524;SDS011;25203;50.754;6.978;2023-04-24T08:40:42;5.13;;;2.70;;
39524;SDS011;25203;50.754;6.978;2023-04-24T08:42:45;6.20;;;3.10;;
39524;SDS011;25203;50.754;6.978;2023-04-24T08:44:47;3.28;;;2.88;;
39524;SDS011;25203;50.754;6.978;2023-04-24T08:46:49;14.07;;;3.55;;
39524;SDS011;25203;50.754;6.978;2023-04-24T08:48:50;5.25;;;3.75;;
39524;SDS011;25203;50.754;6.978;2023-04-24T08:50:52;5.10;;;4.28;;
39524;SDS011;25203;50.754;6.978;2023-04-24T08:52:54;4.82;;;3.92;;
39524;SDS011;25203;50.754;6.978;2023-04-24T08:54:55;6.00;;;4.40;;
39524;SDS011;25203;50.754;6.978;2023-04-24T08:57:00;8.77;;;4.88;;
39524;SDS011;25203;50.754;6.978;2023-04-24T08:59:01;6.15;;;4.65;;
39524;SDS011;25203;50.754;6.978;2023-04-24T09:01:02;9.48;;;5.57;;
39524;SDS011;25203;50.754;6.978;2023-04-24T09:03:04;7.78;;;6.40;;
39524;SDS011;25203;50.754;6.978;2023-04-24T09:05:06;10.30;;;6.57;;
39524;SDS011;25203;50.754;6.978;2023-04-24T09:07:08;9.25;;;6.63;;
39524;SDS011;25203;50.754;6.978;2023-04-24T09:09:10;9.60;;;7.22;;
39524;SDS011;25203;50.754;6.978;2023-04-24T09:11:11;9.93;;;7.40;;
39524;SDS011;25203;50.754;6.978;2023-04-24T09:13:12;10.32;;;7.80;;
39524;SDS011;25203;50.754;6.978;2023-04-24T09:15:13;13.45;;;8.90;;
39524;SDS011;25203;50.754;6.978;2023-04-24T09:17:15;13.70;;;8.43;;
39524;SDS011;25203;50.754;6.978;2023-04-24T09:19:15;14.77;;;9.10;;
39524;SDS011;25203;50.754;6.978;2023-04-24T09:21:16;12.65;;;10.15;;
39524;SDS011;25203;50.754;6.978;2023-04-24T09:23:17;13.88;;;8.75;;
39524;SDS011;25203;50.754;6.978;2023-04-24T09:25:18;17.20;;;10.23;;
39524;SDS011;25203;50.754;6.978;2023-04-24T09:27:18;14.05;;;10.43;;
39524;SDS011;25203;50.754;6.978;2023-04-24T09:29:19;13.63;;;8.45;;
39524;SDS011;25203;50.754;6.978;2023-04-24T09:31:20;13.90;;;8.55;;
39524;SDS011;25203;50.754;6.978;2023-04-24T09:33:22;12.02;;;8.95;;
39524;SDS011;25203;50.754;6.978;2023-04-24T09:35:23;9.35;;;7.75;;
39524;SDS011;25203;50.754;6.978;2023-04-24T09:37:27;11.32;;;8.63;;
39524;SDS011;25203;50.754;6.978;2023-04-24T09:39:29;10.65;;;7.72;;
39524;SDS011;25203;50.754;6.978;2023-04-24T09:41:29;11.80;;;8.40;;
39524;SDS011;25203;50.754;6.978;2023-04-24T09:43:31;10.77;;;6.90;;
39524;SDS011;25203;50.754;6.978;2023-04-24T09:45:36;11.45;;;6.90;;
39524;SDS011;25203;50.754;6.978;2023-04-24T09:47:38;15.65;;;8.40;;
39524;SDS011;25203;50.754;6.978;2023-04-24T09:49:39;10.40;;;8.25;;
39524;SDS011;25203;50.754;6.978;2023-04-24T09:51:41;13.10;;;7.50;;
39524;SDS011;25203;50.754;6.978;2023-04-24T09:53:46;13.93;;;8.18;;
39524;SDS011;25203;50.754;6.978;2023-04-24T09:55:47;13.55;;;8.68;;
39524;SDS011;25203;50.754;6.978;2023-04-24T09:57:52;14.18;;;7.90;;
39524;SDS011;25203;50.754;6.978;2023-04-24T09:59:55;13.60;;;8.52;;
39524;SDS011;25203;50.754;6.978;2023-04-24T10:01:57;10.77;;;7.85;;
39524;SDS011;25203;50.754;6.978;2023-04-24T10:04:00;13.13;;;8.27;;
39524;SDS011;25203;50.754;6.978;2023-04-24T10:06:01;12.48;;;8.48;;
39524;SDS011;25203;50.754;6.978;2023-04-24T10:08:10;11.95;;;8.23;;
39524;SDS011;25203;50.754;6.978;2023-04-24T10:10:11;16.70;;;8.27;;
39524;SDS011;25203;50.754;6.978;2023-04-24T10:12:12;11.60;;;7.95;;
39524;SDS011;25203;50.754;6.978;2023-04-24T10:14:17;12.48;;;8.32;;
39524;SDS011;25203;50.754;6.978;2023-04-24T10:16:25;12.57;;;7.70;;
39524;SDS011;25203;50.754;6.978;2023-04-24T10:18:27;11.57;;;8.77;;
39524;SDS011;25203;50.754;6.978;2023-04-24T10:20:29;17.17;;;8.75;;
39524;SDS011;25203;50.754;6.978;2023-04-24T10:22:30;16.52;;;8.13;;
39524;SDS011;25203;50.754;6.978;2023-04-24T10:24:33;10.25;;;7.28;;
39524;SDS011;25203;50.754;6.978;2023-04-24T10:26:36;9.23;;;6.47;;
39524;SDS011;25203;50.754;6.978;2023-04-24T10:28:37;13.90;;;8.13;;
39524;SDS011;25203;50.754;6.978;2023-04-24T10:30:39;14.43;;;7.47;;
39524;SDS011;25203;50.754;6.978;2023-04-24T10:32:43;9.35;;;6.55;;
39524;SDS011;25203;50.754;6.978;2023-04-24T10:34:44;10.85;;;6.55;;
39524;SDS011;25203;50.754;6.978;2023-04-24T10:36:46;10.77;;;6.50;;
39524;SDS011;25203;50.754;6.978;2023-04-24T10:38:50;11.00;;;6.15;;
39524;SDS011;25203;50.754;6.978;2023-04-24T10:41:06;18.98;;;6.57;;
39524;SDS011;25203;50.754;6.978;2023-04-24T10:43:09;13.65;;;6.70;;
39524;SDS011;25203;50.754;6.978;2023-04-24T10:45:17;11.75;;;6.50;;
39524;SDS011;25203;50.754;6.978;2023-04-24T10:47:21;13.27;;;6.82;;
39524;SDS011;25203;50.754;6.978;2023-04-24T10:49:27;13.88;;;7.22;;
39524;SDS011;25203;50.754;6.978;2023-04-24T10:53:46;12.48;;;7.75;;
39524;SDS011;25203;50.754;6.978;2023-04-24T10:55:51;16.85;;;9.05;;
39524;SDS011;25203;50.754;6.978;2023-04-24T10:58:05;14.85;;;9.25;;
39524;SDS011;25203;50.754;6.978;2023-04-24T11:00:19;21.73;;;9.50;;
39524;SDS011;25203;50.754;6.978;2023-04-24T11:02:24;16.65;;;9.70;;
39524;SDS011;25203;50.754;6.978;2023-04-24T11:04:40;17.45;;;10.15;;
39524;SDS011;25203;50.754;6.978;2023-04-24T11:06:41;19.45;;;10.48;;
39524;SDS011;25203;50.754;6.978;2023-04-24T11:08:44;17.15;;;10.50;;
39524;SDS011;25203;50.754;6.978;2023-04-24T11:10:46;22.27;;;10.15;;
39524;SDS011;25203;50.754;6.978;2023-04-24T11:12:54;15.20;;;9.13;;
39524;SDS011;25203;50.754;6.978;2023-04-24T11:17:00;15.30;;;7.18;;
39524;SDS011;25203;50.754;6.978;2023-04-24T11:21:17;18.08;;;8.25;;
39524;SDS011;25203;50.754;6.978;2023-04-24T11:23:18;13.57;;;7.90;;
39524;SDS011;25203;50.754;6.978;2023-04-24T11:25:20;11.10;;;6.43;;
39524;SDS011;25203;50.754;6.978;2023-04-24T11:27:22;8.02;;;6.03;;
39524;SDS011;25203;50.754;6.978;2023-04-24T11:29:37;9.88;;;5.75;;
39524;SDS011;25203;50.754;6.978;2023-04-24T11:31:56;10.95;;;5.50;;
39524;SDS011;25203;50.754;6.978;2023-04-24T11:34:24;11.95;;;5.72;;
39524;SDS011;25203;50.754;6.978;2023-04-24T11:36:25;5.63;;;4.25;;
39524;SDS011;25203;50.754;6.978;2023-04-24T11:38:26;9.65;;;4.28;;
39524;SDS011;25203;50.754;6.978;2023-04-24T11:40:27;11.10;;;4.45;;
39524;SDS011;25203;50.754;6.978;2023-04-24T11:42:28;7.10;;;4.00;;
39524;SDS011;25203;50.754;6.978;2023-04-24T11:44:36;14.98;;;4.88;;
39524;SDS011;25203;50.754;6.978;2023-04-24T11:46:39;12.45;;;4.10;;
39524;SDS011;25203;50.754;6.978;2023-04-24T11:48:44;12.85;;;3.97;;
39524;SDS011;25203;50.754;6.978;2023-04-24T11:50:46;7.82;;;3.80;;
39524;SDS011;25203;50.754;6.978;2023-04-24T11:52:47;15.93;;;4.57;;
39524;SDS011;25203;50.754;6.978;2023-04-24T11:54:49;8.52;;;4.20;;
39524;SDS011;25203;50.754;6.978;2023-04-24T11:56:50;12.02;;;4.53;;
39524;SDS011;25203;50.754;6.978;2023-04-24T11:58:54;14.27;;;4.35;;
39524;SDS011;25203;50.754;6.978;2023-04-24T12:00:58;10.43;;;4.72;;
39524;SDS011;25203;50.754;6.978;2023-04-24T12:05:07;10.02;;;4.80;;
39524;SDS011;25203;50.754;6.978;2023-04-24T12:07:08;11.38;;;5.25;;
39524;SDS011;25203;50.754;6.978;2023-04-24T12:09:08;14.20;;;5.70;;
39524;SDS011;25203;50.754;6.978;2023-04-24T12:11:09;9.45;;;5.35;;
39524;SDS011;25203;50.754;6.978;2023-04-24T12:13:10;12.65;;;6.32;;
39524;SDS011;25203;50.754;6.978;2023-04-24T12:15:11;13.07;;;5.97;;
39524;SDS011;25203;50.754;6.978;2023-04-24T12:17:12;11.85;;;6.35;;